createdAt,value
2018-03-14T00:00:08.768Z,11.17
2018-03-14T00:02:36.944Z,11.70
2018-03-14T00:05:05.053Z,12.20
2018-03-14T00:07:33.184Z,12.07
2018-03-14T00:10:01.297Z,10.87
2018-03-14T00:12:30.185Z,11.57
2018-03-14T00:14:58.355Z,10.40
2018-03-14T00:17:26.565Z,11.03
2018-03-14T00:19:54.731Z,11.30
2018-03-14T00:22:34.872Z,12.53
2018-03-14T00:25:03.041Z,13.17
2018-03-14T00:27:31.274Z,11.90
2018-03-14T00:29:59.424Z,13.30
2018-03-14T00:32:27.531Z,12.20
2018-03-14T00:34:56.446Z,12.53
2018-03-14T00:37:24.635Z,12.77
2018-03-14T00:39:52.822Z,12.10
2018-03-14T00:42:20.937Z,12.23
2018-03-14T00:44:49.810Z,10.53
2018-03-14T00:47:17.977Z,10.37
2018-03-14T00:49:46.180Z,10.63
2018-03-14T00:52:14.309Z,12.53
2018-03-14T00:54:43.210Z,11.30
2018-03-14T00:57:11.424Z,11.67
2018-03-14T00:59:40.289Z,9.77
2018-03-14T01:02:09.230Z,11.30
2018-03-14T01:04:37.409Z,10.07
2018-03-14T01:07:05.566Z,9.70
2018-03-14T01:09:34.438Z,7.33
2018-03-14T01:12:02.586Z,8.17
2018-03-14T01:14:30.805Z,7.53
2018-03-14T01:16:58.913Z,7.30
2018-03-14T01:19:27.058Z,7.53
2018-03-14T01:21:55.258Z,7.90
2018-03-14T01:24:23.377Z,7.40
2018-03-14T01:26:51.536Z,6.83
2018-03-14T01:29:19.728Z,7.00
2018-03-14T01:31:47.820Z,7.23
2018-03-14T01:34:15.995Z,6.80
2018-03-14T01:36:44.105Z,6.33
2018-03-14T01:39:12.277Z,5.97
2018-03-14T01:41:40.477Z,6.83
2018-03-14T01:44:08.609Z,6.97
2018-03-14T01:46:36.759Z,6.70
2018-03-14T01:49:05.734Z,7.60
2018-03-14T01:51:33.884Z,7.17
2018-03-14T01:54:02.060Z,7.27
2018-03-14T01:56:30.221Z,7.97
2018-03-14T01:58:58.384Z,7.43
2018-03-14T02:01:26.510Z,7.13
2018-03-14T02:03:54.648Z,6.67
2018-03-14T02:06:23.288Z,5.97
2018-03-14T02:08:52.209Z,6.67
2018-03-14T02:11:20.785Z,6.30
2018-03-14T02:13:49.572Z,6.07
2018-03-14T02:16:18.340Z,6.70
2018-03-14T02:18:46.865Z,7.30
2018-03-14T02:21:14.970Z,7.17
2018-03-14T02:23:43.157Z,9.03
2018-03-14T02:26:12.045Z,8.50
2018-03-14T02:28:40.931Z,7.87
2018-03-14T02:31:09.070Z,8.17
2018-03-14T02:33:37.591Z,10.00
2018-03-14T02:36:05.811Z,10.33
2018-03-14T02:38:33.943Z,13.10
2018-03-14T02:41:02.043Z,13.17
2018-03-14T02:43:30.228Z,12.73
2018-03-14T02:45:58.396Z,13.17
2018-03-14T02:48:26.566Z,13.93
2018-03-14T02:50:55.448Z,13.57
2018-03-14T02:53:24.332Z,12.50
2018-03-14T02:55:52.446Z,12.90
2018-03-14T02:58:21.318Z,12.67
2018-03-14T03:00:49.553Z,12.67
2018-03-14T03:03:18.521Z,13.77
2018-03-14T03:05:46.681Z,13.23
2018-03-14T03:08:14.881Z,13.40
2018-03-14T03:10:43.032Z,13.10
2018-03-14T03:13:11.166Z,13.40
2018-03-14T03:15:39.304Z,13.50
2018-03-14T03:18:08.164Z,13.33
2018-03-14T03:20:37.098Z,13.43
2018-03-14T03:23:05.192Z,12.83
2018-03-14T03:25:33.325Z,12.63
2018-03-14T03:28:01.541Z,13.50
2018-03-14T03:30:30.445Z,14.03
2018-03-14T03:32:59.368Z,14.00
2018-03-14T03:35:27.538Z,14.13
2018-03-14T03:37:56.404Z,14.30
2018-03-14T03:40:24.573Z,14.37
2018-03-14T03:42:52.746Z,13.47
2018-03-14T03:45:20.865Z,15.13
2018-03-14T03:47:48.972Z,13.73
2018-03-14T03:50:17.996Z,13.43
2018-03-14T03:52:46.166Z,12.60
2018-03-14T03:55:15.097Z,12.07
2018-03-14T03:57:43.328Z,13.17
2018-03-14T04:00:11.474Z,11.53
2018-03-14T04:02:39.529Z,13.37
2018-03-14T04:05:08.458Z,13.60
2018-03-14T04:07:36.659Z,12.67
2018-03-14T04:10:04.828Z,13.20
2018-03-14T04:12:33.026Z,13.07
2018-03-14T04:15:01.278Z,18.53
2018-03-14T04:17:29.387Z,13.97
2018-03-14T04:19:57.570Z,13.00
2018-03-14T04:22:25.845Z,12.93
2018-03-14T04:24:54.790Z,14.60
2018-03-14T04:27:22.936Z,12.77
2018-03-14T04:29:51.851Z,14.00
2018-03-14T04:32:19.999Z,12.80
2018-03-14T04:34:48.160Z,13.43
2018-03-14T04:37:16.282Z,12.43
2018-03-14T04:39:45.181Z,13.27
2018-03-14T04:42:13.286Z,13.00
2018-03-14T04:44:42.171Z,12.23
2018-03-14T04:47:10.329Z,12.50
2018-03-14T04:49:38.485Z,11.40
2018-03-14T04:52:06.650Z,11.53
2018-03-14T04:54:35.541Z,10.83
2018-03-14T04:57:04.481Z,10.23
2018-03-14T04:59:32.582Z,10.63
2018-03-14T05:02:00.768Z,10.70
2018-03-14T05:04:28.922Z,9.93
2018-03-14T05:06:57.930Z,10.07
2018-03-14T05:09:26.812Z,10.13
2018-03-14T05:11:54.967Z,9.30
2018-03-14T05:14:23.194Z,8.77
2018-03-14T05:16:51.365Z,8.83
2018-03-14T05:19:19.545Z,9.60
2018-03-14T05:21:47.672Z,8.50
2018-03-14T05:24:15.830Z,8.90
2018-03-14T05:26:44.019Z,8.97
2018-03-14T05:29:12.173Z,10.37
2018-03-14T05:31:40.272Z,9.57
2018-03-14T05:34:08.744Z,10.63
2018-03-14T05:36:36.960Z,10.50
2018-03-14T05:39:05.142Z,11.90
2018-03-14T05:41:33.374Z,11.50
2018-03-14T05:44:02.269Z,10.07
2018-03-14T05:46:30.460Z,10.50
2018-03-14T05:48:59.360Z,11.40
2018-03-14T05:51:28.270Z,10.07
2018-03-14T05:53:56.551Z,10.13
2018-03-14T05:56:24.774Z,9.70
2018-03-14T05:58:52.903Z,9.43
2018-03-14T06:01:21.025Z,9.87
2018-03-14T06:03:49.181Z,10.43
2018-03-14T06:06:17.382Z,10.43
2018-03-14T06:08:45.915Z,10.17
2018-03-14T06:11:14.049Z,9.70
2018-03-14T06:13:42.290Z,10.53
2018-03-14T06:16:10.505Z,10.77
2018-03-14T06:18:38.645Z,10.67
2018-03-14T06:21:06.841Z,9.87
2018-03-14T06:23:35.015Z,10.97
2018-03-14T06:26:03.141Z,9.93
2018-03-14T06:28:31.264Z,9.97
2018-03-14T06:31:00.316Z,10.67
2018-03-14T06:33:28.560Z,9.53
2018-03-14T06:35:56.776Z,8.83
2018-03-14T06:38:25.713Z,9.87
2018-03-14T06:40:53.870Z,10.33
2018-03-14T06:43:21.968Z,8.23
2018-03-14T06:45:50.134Z,9.03
2018-03-14T06:48:18.243Z,8.90
2018-03-14T06:50:46.484Z,7.70
2018-03-14T06:53:14.705Z,7.83
2018-03-14T06:55:42.837Z,8.23
2018-03-14T06:58:11.137Z,7.63
2018-03-14T07:00:51.531Z,8.33
2018-03-14T07:06:30.258Z,8.40
2018-03-14T07:08:58.331Z,7.90
2018-03-14T07:11:26.473Z,8.07
2018-03-14T07:13:55.419Z,9.07
2018-03-14T07:16:23.564Z,8.27
2018-03-14T07:18:52.497Z,7.23
2018-03-14T07:21:20.649Z,8.20
2018-03-14T07:23:48.830Z,8.17
2018-03-14T07:26:17.009Z,7.57
2018-03-14T07:28:45.112Z,8.13
2018-03-14T07:31:13.991Z,8.30
2018-03-14T07:33:42.256Z,8.47
2018-03-14T07:36:10.408Z,8.50
2018-03-14T07:38:38.612Z,8.13
2018-03-14T07:41:06.762Z,8.90
2018-03-14T07:43:35.661Z,7.67
2018-03-14T07:46:03.890Z,7.50
2018-03-14T07:48:32.005Z,7.60
2018-03-14T07:51:00.205Z,7.43
2018-03-14T07:53:28.380Z,7.27
2018-03-14T07:55:56.609Z,8.83
2018-03-14T07:58:24.847Z,8.47
2018-03-14T08:00:53.685Z,7.37
2018-03-14T08:03:21.916Z,6.87
2018-03-14T08:05:50.045Z,7.27
2018-03-14T08:08:18.260Z,8.03
2018-03-14T08:10:47.186Z,7.53
2018-03-14T08:13:15.289Z,6.87
2018-03-14T08:15:43.412Z,7.37
2018-03-14T08:18:11.577Z,7.13
2018-03-14T08:20:39.735Z,7.33
2018-03-14T08:23:07.981Z,7.53
2018-03-14T08:25:36.142Z,6.80
2018-03-14T08:28:04.301Z,6.87
2018-03-14T08:30:32.468Z,6.93
2018-03-14T08:33:01.477Z,6.40
2018-03-14T08:35:30.379Z,6.37
2018-03-14T08:37:58.569Z,6.27
2018-03-14T08:40:27.935Z,7.47
2018-03-14T08:42:56.104Z,6.37
2018-03-14T08:45:24.264Z,6.53
2018-03-14T08:47:52.357Z,6.10
2018-03-14T08:50:20.525Z,7.30
2018-03-14T08:52:49.446Z,6.77
2018-03-14T08:55:17.650Z,5.63
2018-03-14T08:57:45.775Z,6.27
2018-03-14T09:00:13.956Z,6.03
2018-03-14T09:02:42.119Z,6.00
2018-03-14T09:05:10.287Z,6.70
2018-03-14T09:07:38.438Z,4.83
2018-03-14T09:10:07.350Z,4.73
2018-03-14T09:12:36.276Z,4.83
2018-03-14T09:15:04.488Z,6.00
2018-03-14T09:17:32.644Z,4.47
2018-03-14T09:20:00.802Z,5.30
2018-03-14T09:22:29.788Z,5.07
2018-03-14T09:24:57.970Z,4.10
2018-03-14T09:27:26.077Z,4.47
2018-03-14T09:29:54.966Z,4.43
2018-03-14T09:32:23.177Z,4.07
2018-03-14T09:34:51.277Z,4.50
2018-03-14T09:37:20.433Z,4.20
2018-03-14T09:39:48.565Z,4.73
2018-03-14T09:42:16.656Z,4.40
2018-03-14T09:44:44.759Z,4.20
2018-03-14T09:47:12.935Z,4.10
2018-03-14T09:49:41.161Z,4.30
2018-03-14T09:52:09.245Z,4.40
2018-03-14T09:54:37.464Z,4.30
2018-03-14T09:57:06.376Z,4.07
2018-03-14T09:59:34.476Z,3.63
2018-03-14T10:02:03.328Z,3.37
2018-03-14T10:04:31.446Z,4.30
2018-03-14T10:07:00.312Z,4.53
2018-03-14T10:09:28.413Z,4.40
2018-03-14T10:11:56.516Z,4.17
2018-03-14T10:14:25.392Z,3.60
2018-03-14T10:16:53.596Z,4.00
2018-03-14T10:19:21.766Z,3.80
2018-03-14T10:21:50.685Z,3.80
2018-03-14T10:24:18.818Z,3.83
2018-03-14T10:26:46.947Z,3.97
2018-03-14T10:29:15.145Z,3.53
2018-03-14T10:31:43.352Z,4.00
2018-03-14T10:34:11.452Z,3.93
2018-03-14T10:36:39.685Z,3.10
2018-03-14T10:39:08.109Z,3.93
2018-03-14T10:41:37.097Z,3.60
2018-03-14T10:44:05.235Z,5.03
2018-03-14T10:46:33.652Z,3.90
2018-03-14T10:49:01.757Z,3.10
2018-03-14T10:51:29.872Z,3.87
2018-03-14T10:53:58.795Z,4.93
2018-03-14T10:56:26.887Z,4.80
2018-03-14T10:58:55.020Z,4.50
2018-03-14T11:01:23.146Z,3.60
2018-03-14T11:03:52.051Z,4.77
2018-03-14T11:06:20.226Z,5.50
2018-03-14T11:08:49.336Z,4.87
2018-03-14T11:11:18.213Z,4.87
2018-03-14T11:13:46.508Z,4.90
2018-03-14T11:16:14.686Z,4.67
2018-03-14T11:18:43.468Z,5.20
2018-03-14T11:21:11.645Z,4.50
2018-03-14T11:23:39.839Z,6.73
2018-03-14T11:26:07.976Z,7.37
2018-03-14T11:28:36.906Z,4.87
2018-03-14T11:31:05.120Z,4.87
2018-03-14T11:33:33.362Z,5.20
2018-03-14T11:36:02.275Z,5.13
2018-03-14T11:38:30.432Z,6.47
2018-03-14T11:40:58.779Z,5.40
2018-03-14T11:43:26.949Z,4.83
2018-03-14T11:45:55.149Z,4.47
2018-03-14T11:48:23.394Z,4.80
2018-03-14T11:50:52.280Z,4.67
2018-03-14T11:53:20.349Z,4.97
2018-03-14T11:55:48.558Z,5.50
2018-03-14T11:58:16.637Z,4.93
2018-03-14T12:00:44.742Z,5.63
2018-03-14T12:03:13.653Z,5.87
2018-03-14T12:05:41.807Z,5.83
2018-03-14T12:08:10.021Z,6.30
2018-03-14T12:10:38.955Z,5.90
2018-03-14T12:13:07.045Z,6.20
2018-03-14T12:15:35.800Z,6.83
2018-03-14T12:18:04.753Z,6.70
2018-03-14T12:20:32.902Z,5.87
2018-03-14T12:23:01.848Z,6.30
2018-03-14T12:25:30.230Z,5.80
2018-03-14T12:27:58.386Z,5.93
2018-03-14T12:30:27.343Z,6.00
2018-03-14T12:32:55.509Z,6.10
2018-03-14T12:35:23.655Z,5.60
2018-03-14T12:37:52.539Z,5.03
2018-03-14T12:40:20.698Z,8.37
2018-03-14T12:42:48.865Z,5.53
2018-03-14T12:45:16.992Z,4.47
2018-03-14T12:47:45.102Z,5.20
2018-03-14T12:50:13.340Z,5.23
2018-03-14T12:52:41.516Z,5.53
2018-03-14T12:55:10.016Z,5.77
2018-03-14T12:57:38.227Z,5.40
2018-03-14T13:00:06.331Z,5.97
2018-03-14T13:02:34.509Z,5.43
2018-03-14T13:05:02.635Z,5.33
2018-03-14T13:07:30.787Z,5.43
2018-03-14T13:09:58.971Z,5.30
2018-03-14T13:12:27.159Z,5.60
2018-03-14T13:14:55.374Z,6.03
2018-03-14T13:17:24.552Z,8.80
2018-03-14T13:19:52.717Z,4.90
2018-03-14T13:22:20.804Z,4.70
2018-03-14T13:24:49.020Z,4.87
2018-03-14T13:27:17.205Z,4.67
2018-03-14T13:29:45.309Z,4.57
2018-03-14T13:32:14.265Z,4.90
2018-03-14T13:34:42.449Z,5.30
2018-03-14T13:37:10.559Z,4.93
2018-03-14T13:39:38.720Z,5.07
2018-03-14T13:42:06.898Z,5.30
2018-03-14T13:44:35.395Z,4.43
2018-03-14T13:47:03.602Z,5.17
2018-03-14T13:49:31.784Z,4.53
2018-03-14T13:52:00.358Z,4.47
2018-03-14T13:54:28.434Z,5.10
2018-03-14T13:56:56.594Z,5.53
2018-03-14T13:59:25.535Z,5.20
2018-03-14T14:01:53.635Z,5.40
2018-03-14T14:04:21.793Z,5.67
2018-03-14T14:06:49.980Z,5.27
2018-03-14T14:09:18.120Z,5.20
2018-03-14T14:11:46.319Z,5.40
2018-03-14T14:14:14.714Z,6.53
2018-03-14T14:16:42.852Z,5.67
2018-03-14T14:19:11.117Z,6.03
2018-03-14T14:21:39.221Z,5.77
2018-03-14T14:24:07.436Z,5.80
2018-03-14T14:26:35.584Z,5.60
2018-03-14T14:29:03.726Z,6.07
2018-03-14T14:31:31.831Z,6.33
2018-03-14T14:34:00.790Z,6.03
2018-03-14T14:36:28.950Z,5.87
2018-03-14T14:38:57.164Z,5.93
2018-03-14T14:41:25.323Z,5.10
2018-03-14T14:43:53.434Z,5.47
2018-03-14T14:46:21.533Z,5.10
2018-03-14T14:48:49.711Z,5.73
2018-03-14T14:51:17.922Z,6.30
2018-03-14T14:53:46.045Z,5.57
2018-03-14T14:56:14.176Z,6.07
2018-03-14T14:58:42.374Z,6.13
2018-03-14T15:01:10.582Z,5.47
2018-03-14T15:03:39.555Z,6.53
2018-03-14T15:06:07.779Z,5.33
2018-03-14T15:08:36.625Z,5.60
2018-03-14T15:11:04.731Z,5.63
2018-03-14T15:13:32.918Z,5.93
2018-03-14T15:16:01.090Z,6.57
2018-03-14T15:18:30.003Z,5.47
2018-03-14T15:20:58.124Z,6.67
2018-03-14T15:23:27.092Z,5.50
2018-03-14T15:25:55.197Z,5.30
2018-03-14T15:28:23.300Z,6.20
2018-03-14T15:30:52.204Z,7.83
2018-03-14T15:33:21.098Z,6.37
2018-03-14T15:35:50.033Z,6.40
2018-03-14T15:38:18.168Z,6.40
2018-03-14T15:40:46.348Z,6.20
2018-03-14T15:43:14.442Z,6.97
2018-03-14T15:45:42.601Z,5.97
2018-03-14T15:48:10.789Z,5.83
2018-03-14T15:50:38.968Z,6.37
2018-03-14T15:53:07.157Z,6.17
2018-03-14T15:55:35.325Z,5.77
2018-03-14T15:58:03.408Z,5.93
2018-03-14T16:00:31.553Z,6.60
2018-03-14T16:02:59.708Z,6.30
2018-03-14T16:05:27.866Z,5.97
2018-03-14T16:07:55.959Z,5.70
2018-03-14T16:10:24.105Z,6.20
2018-03-14T16:12:53.038Z,5.73
2018-03-14T16:15:21.146Z,5.60
2018-03-14T16:17:49.293Z,6.20
2018-03-14T16:20:17.497Z,5.47
2018-03-14T16:22:51.298Z,5.70
2018-03-14T16:25:19.484Z,5.63
2018-03-14T16:27:47.629Z,6.20
2018-03-14T16:30:15.804Z,5.53
2018-03-14T16:32:43.957Z,5.80
2018-03-14T16:35:18.338Z,6.07
2018-03-14T16:37:46.564Z,6.20
2018-03-14T16:40:20.323Z,6.37
2018-03-14T16:42:48.449Z,6.63
2018-03-14T16:45:16.550Z,6.13
2018-03-14T16:47:44.683Z,6.47
2018-03-14T16:50:12.824Z,5.90
2018-03-14T16:52:40.970Z,6.23
2018-03-14T16:55:09.535Z,7.00
2018-03-14T16:57:37.664Z,6.37
2018-03-14T17:00:08.556Z,6.03
2018-03-14T17:02:36.720Z,7.53
2018-03-14T17:05:04.817Z,6.70
2018-03-14T17:07:33.004Z,7.37
2018-03-14T17:10:01.203Z,7.23
2018-03-14T17:12:29.385Z,7.27
2018-03-14T17:14:57.485Z,8.30
2018-03-14T17:17:25.724Z,7.67
2018-03-14T17:19:54.694Z,6.73
2018-03-14T17:22:22.808Z,7.03
2018-03-14T17:24:50.988Z,7.40
2018-03-14T17:27:19.129Z,6.50
2018-03-14T17:29:47.242Z,7.60
2018-03-14T17:32:15.401Z,6.93
2018-03-14T17:34:43.472Z,10.47
2018-03-14T17:37:11.644Z,7.17
2018-03-14T17:39:40.539Z,7.03
2018-03-14T17:42:09.815Z,7.27
2018-03-14T17:44:38.647Z,7.20
2018-03-14T17:47:06.818Z,7.27
2018-03-14T17:49:35.013Z,7.40
2018-03-14T17:52:03.164Z,7.53
2018-03-14T17:54:31.343Z,7.93
2018-03-14T17:56:59.488Z,8.40
2018-03-14T17:59:28.390Z,8.00
2018-03-14T18:01:57.292Z,7.37
2018-03-14T18:04:25.422Z,8.30
2018-03-14T18:06:53.503Z,7.47
2018-03-14T18:09:21.614Z,8.50
2018-03-14T18:11:50.549Z,7.70
2018-03-14T18:14:18.648Z,8.33
2018-03-14T18:16:46.781Z,9.17
2018-03-14T18:19:14.885Z,7.70
2018-03-14T18:21:42.976Z,7.70
2018-03-14T18:24:11.122Z,8.23
2018-03-14T18:26:39.524Z,7.40
2018-03-14T18:29:07.767Z,7.83
2018-03-14T18:31:36.677Z,7.40
2018-03-14T18:34:05.634Z,7.33
2018-03-14T18:36:33.874Z,6.80
2018-03-14T18:39:02.855Z,7.47
2018-03-14T18:41:31.005Z,7.80
2018-03-14T18:43:59.169Z,7.20
2018-03-14T18:46:27.278Z,7.40
2018-03-14T18:48:55.475Z,8.10
2018-03-14T18:51:23.651Z,7.77
2018-03-14T18:53:51.788Z,8.10
2018-03-14T18:56:19.881Z,7.23
2018-03-14T18:58:47.995Z,7.93
2018-03-14T19:01:16.162Z,9.50
2018-03-14T19:03:44.243Z,8.37
2018-03-14T19:06:12.393Z,8.40
2018-03-14T19:08:40.491Z,7.97
2018-03-14T19:11:08.694Z,8.20
2018-03-14T19:13:36.828Z,8.57
2018-03-14T19:16:04.939Z,8.80
2018-03-14T19:18:33.161Z,9.13
2018-03-14T19:21:02.085Z,9.10
2018-03-14T19:23:30.183Z,9.83
2018-03-14T19:25:58.369Z,9.47
2018-03-14T19:28:26.520Z,9.33
2018-03-14T19:30:54.740Z,9.13
2018-03-14T19:33:23.012Z,9.23
2018-03-14T19:35:51.219Z,9.33
2018-03-14T19:38:19.767Z,9.10
2018-03-14T19:40:47.957Z,9.20
2018-03-14T19:43:16.864Z,8.80
2018-03-14T19:45:45.731Z,8.90
2018-03-14T19:48:13.896Z,9.07
2018-03-14T19:50:42.057Z,7.90
2018-03-14T19:53:10.283Z,8.13
2018-03-14T19:55:38.988Z,9.43
2018-03-14T19:58:07.087Z,8.20
2018-03-14T20:00:35.275Z,7.50
2018-03-14T20:03:03.531Z,8.13
2018-03-14T20:05:31.717Z,8.57
2018-03-14T20:07:59.833Z,8.33
2018-03-14T20:10:29.083Z,8.43
2018-03-14T20:12:57.232Z,8.50
2018-03-14T20:15:29.072Z,8.93
2018-03-14T20:17:58.810Z,8.40
2018-03-14T20:20:27.190Z,9.27
2018-03-14T20:22:55.599Z,9.90
2018-03-14T20:25:23.757Z,8.70
2018-03-14T20:27:53.387Z,9.33
2018-03-14T20:30:21.568Z,8.27
2018-03-14T20:32:49.693Z,9.03
2018-03-14T20:35:17.874Z,8.83
2018-03-14T20:37:46.010Z,9.20
2018-03-14T20:40:14.181Z,9.47
2018-03-14T20:42:42.285Z,8.87
2018-03-14T20:45:10.417Z,10.23
2018-03-14T20:47:38.577Z,9.40
2018-03-14T20:50:09.275Z,9.20
2018-03-14T20:52:38.188Z,8.90
2018-03-14T20:55:07.062Z,9.27
2018-03-14T20:57:35.227Z,9.77
2018-03-14T21:00:03.374Z,10.67
2018-03-14T21:02:31.598Z,9.43
2018-03-14T21:04:59.740Z,9.10
2018-03-14T21:07:27.830Z,9.50
2018-03-14T21:09:56.010Z,9.30
2018-03-14T21:12:24.091Z,9.70
2018-03-14T21:14:52.252Z,9.80
2018-03-14T21:17:20.427Z,10.07
2018-03-14T21:19:48.599Z,9.83
2018-03-14T21:22:16.754Z,9.83
2018-03-14T21:24:44.863Z,9.37
2018-03-14T21:27:13.033Z,9.77
2018-03-14T21:29:41.161Z,9.97
2018-03-14T21:32:09.285Z,9.40
2018-03-14T21:34:37.413Z,8.73
2018-03-14T21:37:05.519Z,11.30
2018-03-14T21:39:33.681Z,10.37
2018-03-14T21:42:01.894Z,10.67
2018-03-14T21:44:30.081Z,9.90
2018-03-14T21:46:58.344Z,11.47
2018-03-14T21:49:26.462Z,10.73
2018-03-14T21:51:54.540Z,10.37
2018-03-14T21:54:22.686Z,9.63
2018-03-14T21:56:50.852Z,9.90
2018-03-14T21:59:19.854Z,9.97
2018-03-14T22:01:48.116Z,11.57
2018-03-14T22:04:16.229Z,10.90
2018-03-14T22:06:44.358Z,10.63
2018-03-14T22:09:12.577Z,12.43
2018-03-14T22:11:40.695Z,10.20
2018-03-14T22:14:08.907Z,11.07
2018-03-14T22:16:37.167Z,10.90
2018-03-14T22:19:05.352Z,11.80
2018-03-14T22:21:34.267Z,11.87
2018-03-14T22:24:02.484Z,12.70
2018-03-14T22:26:30.632Z,11.33
2018-03-14T22:28:59.580Z,11.80
2018-03-14T22:31:27.667Z,10.63
2018-03-14T22:33:55.883Z,10.83
2018-03-14T22:36:23.996Z,11.53
2018-03-14T22:38:52.218Z,10.73
2018-03-14T22:41:20.388Z,12.20
2018-03-14T22:43:48.552Z,11.53
2018-03-14T22:46:16.753Z,12.27
2018-03-14T22:48:44.865Z,11.37
2018-03-14T22:51:12.987Z,11.83
2018-03-14T22:53:41.899Z,11.30
2018-03-14T22:56:10.874Z,12.17
2018-03-14T22:58:39.035Z,12.53
2018-03-14T23:01:07.210Z,13.03
2018-03-14T23:03:35.356Z,12.93
2018-03-14T23:06:04.292Z,12.30
2018-03-14T23:08:32.429Z,12.03
2018-03-14T23:11:00.587Z,11.77
2018-03-14T23:13:28.767Z,11.33
2018-03-14T23:15:56.869Z,11.90
2018-03-14T23:18:25.003Z,12.33
2018-03-14T23:20:53.993Z,12.20
2018-03-14T23:23:22.919Z,12.10
2018-03-14T23:25:51.806Z,12.73
2018-03-14T23:28:20.715Z,12.23
2018-03-14T23:30:49.671Z,12.07
2018-03-14T23:33:17.802Z,12.10
2018-03-14T23:35:46.788Z,12.97
2018-03-14T23:38:15.035Z,12.73
2018-03-14T23:40:43.187Z,13.57
2018-03-14T23:43:12.076Z,13.27
2018-03-14T23:45:40.228Z,14.20
2018-03-14T23:48:08.421Z,13.10
2018-03-14T23:50:36.638Z,12.63
2018-03-14T23:53:04.743Z,13.40
2018-03-14T23:55:32.979Z,14.23
2018-03-14T23:58:01.136Z,13.20
